createdAt,value
2022-08-29T00:01:29.030Z,5.28
2022-08-29T00:03:57.832Z,6.25
2022-08-29T00:06:26.145Z,6.95
2022-08-29T00:08:53.555Z,5.80
2022-08-29T00:11:21.852Z,6.43
2022-08-29T00:13:49.439Z,5.47
2022-08-29T00:16:17.068Z,5.47
2022-08-29T00:18:45.365Z,6.78
2022-08-29T00:21:12.860Z,5.75
2022-08-29T00:23:40.530Z,6.70
2022-08-29T00:26:08.187Z,5.47
2022-08-29T00:28:35.707Z,5.22
2022-08-29T00:31:03.641Z,5.47
2022-08-29T00:33:31.357Z,6.32
2022-08-29T00:35:59.030Z,5.60
2022-08-29T00:38:27.960Z,5.43
2022-08-29T00:40:57.282Z,5.40
2022-08-29T00:43:33.846Z,5.80
2022-08-29T00:46:04.298Z,7.03
2022-08-29T00:48:34.548Z,5.28
2022-08-29T00:51:06.372Z,5.18
2022-08-29T00:53:40.928Z,5.37
2022-08-29T00:56:10.310Z,7.57
2022-08-29T00:58:41.148Z,6.07
2022-08-29T01:01:09.206Z,5.80
2022-08-29T01:03:37.342Z,5.18
2022-08-29T01:06:12.899Z,7.50
2022-08-29T01:08:41.783Z,6.57
2022-08-29T01:11:29.257Z,6.05
2022-08-29T01:13:57.063Z,4.95
2022-08-29T01:16:25.270Z,5.93
2022-08-29T01:18:56.486Z,5.95
2022-08-29T01:21:34.969Z,5.50
2022-08-29T01:24:24.109Z,6.62
2022-08-29T01:26:51.743Z,5.15
2022-08-29T01:29:19.174Z,5.53
2022-08-29T01:31:56.973Z,5.55
2022-08-29T01:34:28.017Z,5.25
2022-08-29T01:37:01.212Z,4.72
2022-08-29T01:39:31.945Z,7.45
2022-08-29T01:42:01.470Z,6.35
2022-08-29T01:44:29.270Z,5.53
2022-08-29T01:47:02.756Z,6.00
2022-08-29T01:49:34.480Z,5.03
2022-08-29T01:52:03.969Z,4.80
2022-08-29T01:54:32.783Z,5.07
2022-08-29T01:57:01.263Z,7.45
2022-08-29T01:59:30.226Z,6.07
2022-08-29T02:02:24.245Z,5.35
2022-08-29T02:04:51.979Z,8.60
2022-08-29T02:07:23.086Z,6.47
2022-08-29T02:09:50.861Z,5.45
2022-08-29T02:12:20.582Z,4.57
2022-08-29T02:14:48.988Z,4.95
2022-08-29T02:17:16.454Z,5.12
2022-08-29T02:19:44.231Z,5.85
2022-08-29T02:22:11.812Z,4.28
2022-08-29T02:24:39.522Z,4.90
2022-08-29T02:27:09.375Z,5.05
2022-08-29T02:29:38.374Z,4.20
2022-08-29T02:32:08.484Z,5.32
2022-08-29T02:34:36.844Z,5.65
2022-08-29T02:37:05.101Z,5.10
2022-08-29T02:39:33.883Z,4.75
2022-08-29T02:42:02.128Z,6.10
2022-08-29T02:44:29.808Z,5.03
2022-08-29T02:46:57.353Z,4.65
2022-08-29T02:49:25.083Z,5.40
2022-08-29T02:51:52.490Z,7.07
2022-08-29T02:54:19.869Z,8.00
2022-08-29T02:56:47.510Z,5.55
2022-08-29T02:59:14.938Z,5.50
2022-08-29T03:01:42.362Z,5.68
2022-08-29T03:04:10.051Z,5.12
2022-08-29T03:06:37.424Z,4.93
2022-08-29T03:09:04.979Z,6.00
2022-08-29T03:11:32.652Z,4.90
2022-08-29T03:14:00.973Z,10.02
2022-08-29T03:16:28.437Z,5.57
2022-08-29T03:18:56.163Z,6.10
2022-08-29T03:21:25.821Z,5.55
2022-08-29T03:23:53.775Z,5.80
2022-08-29T03:26:21.425Z,5.75
2022-08-29T03:28:48.836Z,6.45
2022-08-29T03:31:16.365Z,5.70
2022-08-29T03:33:44.081Z,6.22
2022-08-29T03:36:13.977Z,7.10
2022-08-29T03:38:43.468Z,5.40
2022-08-29T03:41:11.388Z,5.75
2022-08-29T03:43:38.914Z,6.90
2022-08-29T03:46:06.432Z,6.15
2022-08-29T03:48:34.147Z,6.53
2022-08-29T03:51:01.567Z,6.75
2022-08-29T03:53:30.747Z,6.07
2022-08-29T03:55:58.518Z,6.05
2022-08-29T03:58:26.040Z,6.47
2022-08-29T04:00:53.413Z,7.43
2022-08-29T04:03:24.971Z,7.30
2022-08-29T04:05:59.033Z,8.75
2022-08-29T04:08:26.814Z,6.65
2022-08-29T04:10:54.213Z,6.57
2022-08-29T04:13:21.915Z,5.75
2022-08-29T04:15:50.194Z,7.50
2022-08-29T04:18:21.248Z,7.93
2022-08-29T04:20:49.117Z,7.57
2022-08-29T04:23:16.773Z,7.20
2022-08-29T04:25:44.177Z,6.25
2022-08-29T04:28:13.488Z,8.80
2022-08-29T04:30:51.184Z,6.97
2022-08-29T04:33:22.358Z,6.40
2022-08-29T04:35:52.266Z,7.45
2022-08-29T04:38:19.785Z,8.50
2022-08-29T04:40:47.589Z,6.93
2022-08-29T04:43:15.278Z,6.40
2022-08-29T04:45:42.709Z,7.85
2022-08-29T04:48:10.851Z,8.35
2022-08-29T04:50:39.028Z,6.87
2022-08-29T04:53:06.417Z,6.97
2022-08-29T04:55:33.784Z,5.40
2022-08-29T04:58:01.639Z,6.15
2022-08-29T05:00:31.415Z,5.78
2022-08-29T05:02:59.477Z,7.10
2022-08-29T05:05:27.883Z,5.50
2022-08-29T05:07:55.300Z,7.45
2022-08-29T05:10:22.892Z,6.18
2022-08-29T05:12:51.649Z,5.68
2022-08-29T05:15:19.068Z,5.45
2022-08-29T05:17:46.457Z,5.97
2022-08-29T05:20:14.110Z,5.65
2022-08-29T05:22:42.254Z,5.95
2022-08-29T05:25:15.863Z,6.12
2022-08-29T05:27:46.013Z,5.60
2022-08-29T05:30:13.620Z,7.15
2022-08-29T05:32:40.998Z,5.47
2022-08-29T05:35:09.371Z,7.03
2022-08-29T05:37:37.265Z,5.93
2022-08-29T05:40:05.484Z,5.78
2022-08-29T05:42:33.203Z,5.62
2022-08-29T05:45:00.596Z,6.60
2022-08-29T05:47:28.136Z,6.32
2022-08-29T05:49:55.798Z,6.18
2022-08-29T05:52:23.438Z,5.60
2022-08-29T05:54:50.986Z,4.95
2022-08-29T05:57:22.400Z,7.78
2022-08-29T05:59:52.146Z,5.10
2022-08-29T06:02:21.150Z,5.20
2022-08-29T06:04:49.338Z,5.47
2022-08-29T06:07:16.898Z,5.45
2022-08-29T06:09:44.666Z,5.68
2022-08-29T06:12:16.099Z,4.70
2022-08-29T06:14:50.439Z,4.90
2022-08-29T06:17:18.650Z,4.80
2022-08-29T06:19:46.346Z,4.70
2022-08-29T06:22:13.854Z,5.80
2022-08-29T06:24:42.597Z,4.68
2022-08-29T06:27:12.300Z,4.47
2022-08-29T06:29:43.009Z,4.85
2022-08-29T06:32:12.238Z,4.95
2022-08-29T06:34:39.829Z,5.68
2022-08-29T06:37:07.281Z,4.72
2022-08-29T06:39:35.079Z,5.78
2022-08-29T06:42:02.491Z,4.50
2022-08-29T06:44:31.385Z,5.07
2022-08-29T06:46:59.335Z,5.75
2022-08-29T06:49:27.726Z,4.72
2022-08-29T06:51:58.078Z,5.43
2022-08-29T06:54:28.203Z,7.18
2022-08-29T06:56:56.868Z,5.53
2022-08-29T06:59:24.577Z,4.55
2022-08-29T07:01:52.876Z,3.90
2022-08-29T07:04:20.617Z,4.72
2022-08-29T07:06:48.987Z,4.25
2022-08-29T07:09:17.009Z,3.92
2022-08-29T07:11:44.498Z,3.60
2022-08-29T07:14:12.666Z,4.28
2022-08-29T07:16:41.290Z,3.33
2022-08-29T07:19:10.363Z,3.37
2022-08-29T07:21:38.597Z,3.45
2022-08-29T07:24:06.867Z,4.55
2022-08-29T07:26:38.870Z,3.58
2022-08-29T07:29:10.437Z,7.37
2022-08-29T07:31:39.254Z,4.05
2022-08-29T07:34:07.714Z,3.55
2022-08-29T07:36:35.710Z,3.90
2022-08-29T07:39:06.650Z,3.60
2022-08-29T07:41:34.345Z,3.28
2022-08-29T07:44:01.722Z,3.72
2022-08-29T07:46:29.185Z,3.35
2022-08-29T07:48:58.710Z,4.32
2022-08-29T07:51:27.134Z,3.50
2022-08-29T07:53:55.262Z,3.03
2022-08-29T07:56:26.715Z,2.97
2022-08-29T07:58:55.012Z,2.53
2022-08-29T08:01:23.573Z,3.10
2022-08-29T08:03:52.037Z,4.65
2022-08-29T08:06:22.335Z,3.28
2022-08-29T08:08:50.378Z,5.22
2022-08-29T08:11:20.097Z,3.17
2022-08-29T08:13:48.074Z,3.72
2022-08-29T08:16:19.008Z,3.58
2022-08-29T08:18:46.757Z,2.85
2022-08-29T08:21:14.467Z,4.20
2022-08-29T08:23:41.982Z,4.80
2022-08-29T08:26:10.829Z,2.45
2022-08-29T08:28:38.606Z,3.42
2022-08-29T08:31:07.977Z,2.95
2022-08-29T08:33:38.774Z,2.70
2022-08-29T08:36:18.550Z,3.15
2022-08-29T08:38:46.869Z,3.33
2022-08-29T08:41:27.430Z,3.17
2022-08-29T08:44:07.181Z,3.10
2022-08-29T08:46:38.755Z,3.40
2022-08-29T08:49:11.236Z,2.72
2022-08-29T08:51:43.312Z,3.75
2022-08-29T08:54:16.645Z,3.35
2022-08-29T08:56:51.330Z,3.72
2022-08-29T08:59:24.554Z,3.97
2022-08-29T09:02:06.610Z,4.75
2022-08-29T09:05:06.834Z,3.62
2022-08-29T09:07:39.965Z,4.37
2022-08-29T09:10:28.904Z,3.00
2022-08-29T09:13:21.462Z,3.47
2022-08-29T09:15:52.660Z,5.03
2022-08-29T09:18:39.429Z,3.67
2022-08-29T09:21:37.020Z,2.95
2022-08-29T09:24:00.069Z,3.75
2022-08-29T09:26:27.717Z,3.90
2022-08-29T09:28:55.248Z,3.37
2022-08-29T09:31:24.414Z,3.12
2022-08-29T09:33:58.162Z,3.97
2022-08-29T09:36:52.030Z,3.92
2022-08-29T09:39:25.712Z,4.57
2022-08-29T09:42:14.682Z,3.70
2022-08-29T09:44:52.188Z,4.15
2022-08-29T09:47:23.773Z,3.85
2022-08-29T09:50:08.902Z,3.70
2022-08-29T09:52:39.361Z,3.55
2022-08-29T09:55:24.457Z,3.80
2022-08-29T09:57:55.013Z,4.35
2022-08-29T10:00:31.598Z,4.07
2022-08-29T10:03:01.102Z,3.97
2022-08-29T10:05:40.731Z,3.75
2022-08-29T10:08:25.591Z,3.78
2022-08-29T10:10:59.686Z,4.25
2022-08-29T10:13:40.966Z,4.18
2022-08-29T10:17:23.118Z,3.25
2022-08-29T10:19:50.966Z,3.53
2022-08-29T10:22:29.691Z,4.18
2022-08-29T10:25:07.114Z,4.80
2022-08-29T10:27:43.199Z,3.67
2022-08-29T10:30:20.742Z,4.05
2022-08-29T10:33:04.734Z,4.47
2022-08-29T10:38:43.592Z,3.25
2022-08-29T10:41:23.877Z,3.75
2022-08-29T10:44:01.285Z,3.83
2022-08-29T10:46:57.034Z,4.05
2022-08-29T10:49:45.022Z,3.30
2022-08-29T10:52:34.513Z,3.03
2022-08-29T10:55:19.340Z,2.92
2022-08-29T10:58:02.124Z,2.78
2022-08-29T11:00:45.401Z,2.83
2022-08-29T11:03:23.111Z,2.70
2022-08-29T11:06:03.899Z,2.75
2022-08-29T11:08:40.192Z,3.53
2022-08-29T11:11:07.570Z,4.03
2022-08-29T11:13:40.809Z,2.83
2022-08-29T11:16:21.795Z,4.12
2022-08-29T11:19:01.415Z,2.80
2022-08-29T11:21:43.215Z,2.53
2022-08-29T11:24:12.368Z,2.92
2022-08-29T11:27:02.620Z,2.42
2022-08-29T11:29:51.529Z,2.03
2022-08-29T11:32:33.590Z,2.92
2022-08-29T11:35:24.091Z,3.55
2022-08-29T11:38:04.973Z,2.45
2022-08-29T11:43:29.156Z,2.65
2022-08-29T11:46:06.200Z,2.05
2022-08-29T11:48:38.703Z,2.62
2022-08-29T11:51:33.259Z,2.55
2022-08-29T11:54:40.330Z,2.85
2022-08-29T11:57:07.849Z,2.62
2022-08-29T11:59:56.642Z,3.05
2022-08-29T12:02:30.307Z,2.67
2022-08-29T12:05:29.778Z,2.25
2022-08-29T12:08:26.360Z,2.10
2022-08-29T12:11:09.545Z,1.87
2022-08-29T12:13:49.135Z,2.72
2022-08-29T12:16:53.504Z,1.92
2022-08-29T12:19:44.842Z,1.73
2022-08-29T12:22:50.857Z,3.75
2022-08-29T12:25:27.302Z,2.40
2022-08-29T12:28:02.768Z,2.50
2022-08-29T12:30:35.822Z,2.22
2022-08-29T12:33:36.130Z,2.37
2022-08-29T12:36:18.135Z,1.85
2022-08-29T12:39:06.823Z,2.55
2022-08-29T12:41:47.116Z,2.70
2022-08-29T12:44:17.253Z,1.70
2022-08-29T12:46:46.805Z,3.50
2022-08-29T12:49:23.609Z,2.50
2022-08-29T12:51:56.870Z,1.95
2022-08-29T12:54:41.980Z,2.37
2022-08-29T12:57:20.088Z,2.00
2022-08-29T13:02:36.431Z,2.03
2022-08-29T13:05:17.989Z,1.83
2022-08-29T13:08:12.497Z,2.10
2022-08-29T13:10:52.485Z,2.25
2022-08-29T13:13:22.056Z,2.30
2022-08-29T13:15:50.905Z,2.40
2022-08-29T13:18:18.398Z,1.90
2022-08-29T13:20:47.505Z,2.65
2022-08-29T13:23:24.650Z,1.60
2022-08-29T13:25:56.803Z,2.22
2022-08-29T13:28:28.414Z,1.98
2022-08-29T13:31:11.296Z,2.37
2022-08-29T13:34:00.409Z,3.15
2022-08-29T13:36:28.041Z,2.25
2022-08-29T13:39:17.255Z,1.95
2022-08-29T13:41:47.872Z,2.40
2022-08-29T13:44:20.451Z,1.85
2022-08-29T13:46:51.293Z,1.83
2022-08-29T13:49:24.713Z,1.90
2022-08-29T13:51:52.608Z,1.52
2022-08-29T13:54:20.504Z,2.10
2022-08-29T13:56:53.884Z,2.42
2022-08-29T13:59:25.856Z,2.87
2022-08-29T14:02:10.459Z,2.12
2022-08-29T14:04:40.807Z,2.00
2022-08-29T14:07:11.820Z,1.90
2022-08-29T14:09:42.077Z,1.70
2022-08-29T14:12:09.704Z,1.62
2022-08-29T14:14:37.070Z,2.15
2022-08-29T14:17:05.157Z,1.90
2022-08-29T14:19:32.740Z,1.50
2022-08-29T14:22:00.665Z,1.92
2022-08-29T14:24:31.679Z,1.77
2022-08-29T14:27:01.171Z,2.25
2022-08-29T14:29:31.095Z,2.53
2022-08-29T14:31:59.437Z,2.15
2022-08-29T14:34:32.614Z,2.95
2022-08-29T14:37:01.406Z,1.85
2022-08-29T14:39:29.100Z,1.80
2022-08-29T14:41:56.820Z,1.90
2022-08-29T14:44:24.244Z,3.35
2022-08-29T14:46:51.913Z,2.03
2022-08-29T14:49:19.657Z,1.92
2022-08-29T14:51:47.198Z,3.35
2022-08-29T14:54:15.139Z,2.20
2022-08-29T14:56:50.710Z,1.80
2022-08-29T14:59:20.067Z,2.37
2022-08-29T15:01:53.950Z,2.20
2022-08-29T15:04:34.956Z,2.05
2022-08-29T15:07:08.451Z,1.50
2022-08-29T15:09:36.256Z,2.05
2022-08-29T15:12:03.961Z,1.98
2022-08-29T15:14:31.944Z,3.35
2022-08-29T15:16:59.341Z,2.12
2022-08-29T15:22:14.412Z,2.45
2022-08-29T15:24:42.118Z,5.70
2022-08-29T15:27:09.530Z,2.10
2022-08-29T15:29:38.049Z,2.53
2022-08-29T15:32:05.664Z,2.55
2022-08-29T15:34:33.380Z,2.08
2022-08-29T15:37:01.794Z,2.42
2022-08-29T15:39:29.271Z,1.83
2022-08-29T15:41:58.902Z,2.30
2022-08-29T15:44:28.500Z,2.78
2022-08-29T15:46:56.737Z,2.42
2022-08-29T15:49:25.821Z,2.00
2022-08-29T15:51:54.443Z,2.08
2022-08-29T15:54:23.000Z,2.25
2022-08-29T15:56:50.807Z,2.15
2022-08-29T15:59:31.000Z,2.33
2022-08-29T16:02:10.272Z,2.03
2022-08-29T16:04:39.310Z,2.00
2022-08-29T16:07:06.747Z,4.30
2022-08-29T16:09:34.235Z,2.58
2022-08-29T16:12:01.888Z,2.25
2022-08-29T16:14:58.627Z,2.92
2022-08-29T16:17:20.361Z,3.70
2022-08-29T16:19:47.746Z,2.83
2022-08-29T16:22:15.110Z,2.95
2022-08-29T16:24:42.826Z,2.75
2022-08-29T16:27:10.535Z,3.45
2022-08-29T16:29:39.191Z,3.15
2022-08-29T16:32:07.784Z,2.17
2022-08-29T16:34:35.157Z,4.47
2022-08-29T16:37:02.608Z,3.72
2022-08-29T16:39:30.417Z,3.17
2022-08-29T16:41:58.846Z,3.53
2022-08-29T16:44:26.361Z,3.55
2022-08-29T16:46:54.158Z,2.83
2022-08-29T16:49:21.664Z,2.92
2022-08-29T16:51:49.067Z,4.57
2022-08-29T16:54:16.728Z,4.20
2022-08-29T16:56:44.696Z,4.20
2022-08-29T16:59:12.669Z,4.07
2022-08-29T17:01:46.311Z,2.95
2022-08-29T17:04:19.514Z,3.28
2022-08-29T17:06:48.107Z,3.40
2022-08-29T17:09:17.392Z,4.93
2022-08-29T17:11:47.032Z,4.25
2022-08-29T17:14:15.766Z,2.92
2022-08-29T17:16:45.824Z,2.85
2022-08-29T17:19:14.821Z,2.92
2022-08-29T17:21:43.109Z,2.62
2022-08-29T17:24:11.507Z,2.97
2022-08-29T17:26:41.365Z,4.10
2022-08-29T17:29:09.671Z,2.92
2022-08-29T17:31:38.959Z,3.75
2022-08-29T17:34:08.576Z,2.28
2022-08-29T17:36:37.468Z,3.40
2022-08-29T17:39:05.669Z,2.20
2022-08-29T17:41:33.625Z,2.55
2022-08-29T17:44:03.581Z,2.62
2022-08-29T17:46:31.015Z,2.35
2022-08-29T17:48:58.461Z,2.95
2022-08-29T17:51:26.244Z,3.30
2022-08-29T17:53:54.314Z,3.75
2022-08-29T17:56:29.465Z,2.62
2022-08-29T17:58:58.539Z,2.55
2022-08-29T18:01:25.960Z,2.70
2022-08-29T18:03:59.938Z,3.22
2022-08-29T18:06:31.684Z,2.40
2022-08-29T18:09:00.229Z,2.75
2022-08-29T18:11:27.731Z,2.58
2022-08-29T18:13:55.293Z,3.50
2022-08-29T18:16:23.027Z,2.40
2022-08-29T18:18:51.615Z,2.47
2022-08-29T18:21:19.046Z,3.53
2022-08-29T18:23:46.718Z,2.70
2022-08-29T18:26:14.895Z,4.10
2022-08-29T18:28:42.263Z,3.78
2022-08-29T18:31:10.122Z,2.62
2022-08-29T18:33:59.729Z,2.92
2022-08-29T18:36:32.066Z,3.10
2022-08-29T18:39:00.566Z,2.85
2022-08-29T18:41:29.247Z,3.40
2022-08-29T18:43:57.096Z,2.90
2022-08-29T18:46:25.680Z,2.00
2022-08-29T18:48:53.628Z,2.53
2022-08-29T18:51:21.405Z,5.18
2022-08-29T18:53:49.183Z,2.95
2022-08-29T18:56:16.918Z,2.80
2022-08-29T18:58:44.681Z,3.25
2022-08-29T19:01:28.278Z,4.50
2022-08-29T19:03:57.865Z,3.10
2022-08-29T19:06:27.044Z,4.90
2022-08-29T19:08:55.133Z,3.15
2022-08-29T19:11:23.342Z,3.37
2022-08-29T19:13:52.613Z,3.12
2022-08-29T19:16:21.351Z,3.37
2022-08-29T19:18:49.844Z,2.97
2022-08-29T19:21:17.270Z,2.55
2022-08-29T19:23:52.126Z,3.92
2022-08-29T19:26:34.532Z,3.00
2022-08-29T19:29:06.593Z,4.68
2022-08-29T19:31:34.524Z,3.25
2022-08-29T19:34:02.090Z,4.78
2022-08-29T19:36:29.555Z,2.70
2022-08-29T19:38:57.237Z,3.50
2022-08-29T19:41:25.235Z,3.35
2022-08-29T19:43:52.771Z,2.97
2022-08-29T19:46:23.076Z,3.53
2022-08-29T19:48:52.497Z,4.18
2022-08-29T19:51:25.011Z,3.72
2022-08-29T19:53:57.107Z,2.95
2022-08-29T19:56:26.384Z,3.58
2022-08-29T19:58:54.943Z,3.17
2022-08-29T20:01:22.557Z,5.45
2022-08-29T20:03:50.251Z,3.47
2022-08-29T20:06:20.917Z,2.80
2022-08-29T20:08:48.358Z,3.97
2022-08-29T20:11:23.059Z,4.00
2022-08-29T20:13:52.313Z,4.05
2022-08-29T20:16:23.294Z,3.65
2022-08-29T20:18:52.191Z,4.18
2022-08-29T20:21:20.928Z,4.25
2022-08-29T20:23:54.762Z,3.50
2022-08-29T20:26:28.692Z,4.43
2022-08-29T20:28:56.210Z,3.83
2022-08-29T20:31:23.662Z,6.70
2022-08-29T20:33:52.649Z,3.12
2022-08-29T20:36:42.151Z,3.97
2022-08-29T20:39:12.214Z,4.35
2022-08-29T20:41:39.946Z,3.22
2022-08-29T20:44:07.733Z,3.97
2022-08-29T20:46:42.108Z,3.42
2022-08-29T20:49:11.590Z,3.37
2022-08-29T20:51:40.103Z,3.60
2022-08-29T20:54:07.511Z,3.78
2022-08-29T20:56:35.024Z,3.45
2022-08-29T20:59:03.149Z,3.45
2022-08-29T21:01:30.575Z,3.22
2022-08-29T21:04:20.840Z,3.42
2022-08-29T21:06:53.765Z,3.15
2022-08-29T21:09:22.450Z,3.45
2022-08-29T21:11:51.682Z,4.12
2022-08-29T21:14:19.581Z,4.03
2022-08-29T21:16:47.449Z,3.53
2022-08-29T21:19:15.111Z,2.60
2022-08-29T21:21:43.497Z,3.53
2022-08-29T21:24:11.429Z,3.40
2022-08-29T21:26:39.630Z,3.85
2022-08-29T21:29:08.050Z,4.85
2022-08-29T21:31:35.958Z,3.40
2022-08-29T21:34:07.131Z,4.25
2022-08-29T21:36:36.090Z,4.35
2022-08-29T21:39:05.613Z,3.10
2022-08-29T21:41:33.942Z,3.10
2022-08-29T21:44:01.325Z,3.78
2022-08-29T21:46:31.709Z,3.53
2022-08-29T21:49:01.193Z,4.35
2022-08-29T21:51:30.220Z,3.58
2022-08-29T21:53:58.461Z,3.67
2022-08-29T21:56:28.029Z,5.60
2022-08-29T21:58:56.951Z,4.47
2022-08-29T22:01:27.777Z,5.22
2022-08-29T22:04:00.028Z,3.75
2022-08-29T22:06:28.219Z,3.30
2022-08-29T22:08:56.185Z,3.75
2022-08-29T22:11:34.590Z,5.72
2022-08-29T22:14:07.135Z,2.78
2022-08-29T22:16:35.596Z,3.33
2022-08-29T22:19:09.219Z,4.03
2022-08-29T22:21:49.389Z,4.35
2022-08-29T22:24:17.854Z,3.90
2022-08-29T22:26:46.618Z,4.60
2022-08-29T22:29:15.802Z,4.05
2022-08-29T22:31:44.579Z,4.78
2022-08-29T22:34:13.681Z,4.22
2022-08-29T22:36:41.094Z,3.25
2022-08-29T22:39:08.962Z,4.75
2022-08-29T22:41:36.868Z,2.75
2022-08-29T22:46:53.930Z,4.15
2022-08-29T22:49:21.467Z,4.40
2022-08-29T22:51:49.064Z,3.67
2022-08-29T22:54:34.948Z,5.40
2022-08-29T22:57:08.818Z,4.87
2022-08-29T22:59:37.249Z,4.07
2022-08-29T23:02:06.154Z,4.22
2022-08-29T23:04:34.117Z,4.78
2022-08-29T23:07:02.329Z,5.85
2022-08-29T23:09:33.559Z,4.70
2022-08-29T23:12:05.378Z,4.05
2022-08-29T23:14:35.904Z,4.40
2022-08-29T23:17:05.174Z,3.83
2022-08-29T23:19:33.515Z,3.87
2022-08-29T23:22:02.349Z,4.25
2022-08-29T23:24:31.235Z,6.75
2022-08-29T23:26:58.943Z,4.60
2022-08-29T23:29:27.096Z,4.07
2022-08-29T23:31:54.862Z,3.85
2022-08-29T23:34:22.348Z,4.35
2022-08-29T23:36:49.781Z,5.10
2022-08-29T23:39:17.434Z,4.65
2022-08-29T23:41:44.802Z,4.28
2022-08-29T23:44:12.257Z,4.00
2022-08-29T23:46:39.975Z,5.50
2022-08-29T23:49:07.495Z,4.75
2022-08-29T23:51:35.024Z,4.40
2022-08-29T23:54:02.658Z,4.20
2022-08-29T23:56:30.033Z,4.28
2022-08-29T23:58:57.824Z,4.65
